Hlavní strana
METAR-TAF:

METAR-TAF

Letiště :

Wapakoneta, Ohio, Spojené státy americké

zeměpisná šířka: 40-29-37N, zeměpisná délka: 084-17-53W, výška: 278 m

Aktuální stav počasí

Zpráva byla vytvořena před 15 minutami, v 11:56 UTC
Jihojihozápadní vítr 11 kt s nárazy do 15 kt
Teplota 15°C
Vlhkost vzduchu 67%
Tlak 1013 hPa
Viditelnost: 11.3 km
Polojasno ve výšce 7500 ft

METAR: KAXV 231156Z AUTO 21011G15KT 7SM SCT075 15/09 A2991 RMK AO2 LTG DSNT NE

Čas: 08:11 (12:11 UTC)


TAF: chybějící

Stav a předpovědi počasí z více než 4 000 letišť (zprávy METAR a TAF).

Červené a žluté tečky na mapě představují dostupné meteorologické stanice.

Když kurzor umístíte na tečku, zobrazí se název stanice.

Pak kliknutím zobrazíte stav a předpověď počasí.

Chcete-li změnit mapu, kliknutím na zelené tlačítko se znaménkem +mapu přiblížíte, kliknutím na zelené tlačítko se znaménkem – mapu oddálíte a kliknutím na zelené šipky přejdete na sousední mapy.


METAR-TAF: